createdAt,value
2022-10-14T00:00:03.543Z,74.03
2022-10-14T00:00:43.391Z,72.35
2022-10-14T00:01:16.305Z,74.37
2022-10-14T00:01:49.278Z,73.57
2022-10-14T00:02:21.195Z,74.63
2022-10-14T00:02:52.959Z,73.43
2022-10-14T00:03:24.895Z,74.63
2022-10-14T00:03:57.654Z,74.20
2022-10-14T00:04:30.197Z,75.18
2022-10-14T00:05:01.931Z,75.30
2022-10-14T00:05:34.840Z,74.43
2022-10-14T00:06:07.163Z,74.53
2022-10-14T00:06:38.936Z,74.35
2022-10-14T00:07:11.630Z,74.63
2022-10-14T00:07:44.544Z,75.20
2022-10-14T00:08:16.366Z,74.65
2022-10-14T00:08:49.220Z,74.50
2022-10-14T00:09:20.984Z,75.22
2022-10-14T00:09:52.879Z,75.75
2022-10-14T00:10:24.778Z,75.30
2022-10-14T00:10:57.702Z,75.18
2022-10-14T00:11:31.783Z,74.90
2022-10-14T00:12:03.862Z,75.50
2022-10-14T00:12:36.872Z,75.15
2022-10-14T00:13:08.723Z,75.10
2022-10-14T00:13:40.935Z,76.03
2022-10-14T00:14:14.325Z,75.07
2022-10-14T00:14:46.208Z,76.07
2022-10-14T00:15:19.557Z,77.40
2022-10-14T00:15:51.414Z,75.50
2022-10-14T00:16:26.151Z,75.88
2022-10-14T00:16:58.047Z,76.80
2022-10-14T00:17:30.039Z,75.57
2022-10-14T00:18:03.121Z,78.30
2022-10-14T00:18:35.197Z,77.13
2022-10-14T00:19:07.673Z,78.00
2022-10-14T00:19:40.508Z,77.60
2022-10-14T00:20:12.324Z,77.25
2022-10-14T00:20:44.225Z,79.05
2022-10-14T00:21:17.261Z,83.13
2022-10-14T00:21:49.361Z,81.00
2022-10-14T00:22:22.287Z,79.55
2022-10-14T00:22:54.281Z,78.63
2022-10-14T00:23:26.899Z,86.95
2022-10-14T00:24:00.044Z,85.82
2022-10-14T00:24:34.222Z,83.82
2022-10-14T00:25:06.500Z,87.03
2022-10-14T00:25:40.616Z,81.10
2022-10-14T00:26:16.024Z,89.32
2022-10-14T00:26:52.214Z,87.43
2022-10-14T00:27:24.287Z,85.60
2022-10-14T00:27:56.478Z,84.32
2022-10-14T00:28:29.511Z,88.95
2022-10-14T00:29:03.122Z,83.72
2022-10-14T00:29:36.037Z,83.77
2022-10-14T00:30:08.449Z,84.78
2022-10-14T00:30:42.595Z,80.97
2022-10-14T00:31:15.305Z,88.72
2022-10-14T00:31:49.360Z,85.18
2022-10-14T00:32:22.167Z,82.97
2022-10-14T00:32:56.066Z,82.53
2022-10-14T00:33:28.428Z,83.60
2022-10-14T00:34:05.094Z,82.35
2022-10-14T00:34:38.283Z,84.82
2022-10-14T00:35:10.553Z,84.10
2022-10-14T00:35:43.410Z,79.90
2022-10-14T00:36:16.362Z,83.30
2022-10-14T00:36:48.354Z,86.25
2022-10-14T00:37:24.770Z,85.32
2022-10-14T00:37:59.032Z,83.82
2022-10-14T00:38:30.862Z,85.10
2022-10-14T00:39:03.757Z,84.88
2022-10-14T00:39:37.271Z,83.38
2022-10-14T00:40:09.856Z,85.32
2022-10-14T00:40:42.824Z,93.72
2022-10-14T00:41:16.216Z,91.30
2022-10-14T00:41:52.027Z,88.00
2022-10-14T00:42:23.844Z,97.15
2022-10-14T00:42:55.646Z,94.47
2022-10-14T00:43:32.251Z,97.97
2022-10-14T00:44:05.549Z,97.53
2022-10-14T00:45:11.491Z,91.75
2022-10-14T00:45:44.626Z,99.90
2022-10-14T00:46:16.458Z,107.05
2022-10-14T00:46:51.140Z,101.20
2022-10-14T00:47:23.554Z,95.93
2022-10-14T00:47:55.500Z,95.22
2022-10-14T00:48:28.754Z,101.72
2022-10-14T00:49:02.244Z,101.05
2022-10-14T00:49:37.249Z,99.88
2022-10-14T00:50:12.916Z,100.13
2022-10-14T00:50:45.471Z,103.47
2022-10-14T00:51:17.745Z,106.03
2022-10-14T00:51:56.347Z,110.55
2022-10-14T00:52:28.709Z,107.57
2022-10-14T00:53:00.672Z,114.28
2022-10-14T00:53:33.928Z,113.45
2022-10-14T00:54:06.105Z,108.30
2022-10-14T00:54:39.568Z,101.43
2022-10-14T00:55:15.081Z,98.68
2022-10-14T00:55:48.118Z,98.72
2022-10-14T00:56:22.503Z,92.88
2022-10-14T00:56:55.669Z,99.80
2022-10-14T00:57:28.065Z,103.03
2022-10-14T00:57:59.930Z,99.70
2022-10-14T00:58:31.788Z,97.22
2022-10-14T00:59:05.606Z,100.93
2022-10-14T00:59:37.858Z,99.35
2022-10-14T01:00:11.766Z,95.55
2022-10-14T01:00:46.014Z,100.43
2022-10-14T01:01:17.977Z,99.68
2022-10-14T01:01:50.371Z,98.53
2022-10-14T01:02:22.160Z,98.22
2022-10-14T01:02:56.916Z,91.03
2022-10-14T01:03:28.661Z,103.72
2022-10-14T01:04:00.618Z,95.60
2022-10-14T01:04:34.244Z,104.55
2022-10-14T01:05:07.086Z,97.90
2022-10-14T01:05:41.014Z,100.18
2022-10-14T01:06:16.492Z,96.25
2022-10-14T01:06:53.868Z,97.43
2022-10-14T01:07:31.780Z,100.95
2022-10-14T01:08:06.055Z,103.47
2022-10-14T01:08:45.098Z,103.70
2022-10-14T01:09:23.607Z,93.18
2022-10-14T01:10:03.207Z,89.53
2022-10-14T01:10:40.708Z,89.40
2022-10-14T01:11:16.035Z,95.13
2022-10-14T01:12:16.214Z,89.63
2022-10-14T01:12:53.190Z,90.28
2022-10-14T01:13:26.704Z,94.25
2022-10-14T01:14:04.978Z,94.57
2022-10-14T01:14:43.459Z,89.93
2022-10-14T01:15:27.832Z,89.03
2022-10-14T01:16:06.459Z,93.25
2022-10-14T01:16:43.368Z,83.05
2022-10-14T01:17:20.975Z,85.18
2022-10-14T01:17:57.956Z,85.32
2022-10-14T01:18:36.253Z,84.88
2022-10-14T01:19:15.359Z,86.80
2022-10-14T01:20:08.859Z,85.28
2022-10-14T01:20:56.568Z,86.70
2022-10-14T01:21:34.229Z,83.78
2022-10-14T01:22:08.320Z,83.03
2022-10-14T01:22:43.125Z,82.55
2022-10-14T01:23:33.074Z,79.78
2022-10-14T01:24:19.119Z,83.53
2022-10-14T01:24:57.384Z,81.63
2022-10-14T01:25:32.716Z,80.20
2022-10-14T01:26:13.492Z,77.88
2022-10-14T01:27:00.031Z,81.05
2022-10-14T01:27:44.067Z,82.50
2022-10-14T01:28:20.863Z,79.65
2022-10-14T01:29:03.250Z,78.72
2022-10-14T01:29:54.653Z,77.13
2022-10-14T01:30:29.153Z,79.25
2022-10-14T01:31:04.637Z,78.03
2022-10-14T01:31:38.625Z,79.47
2022-10-14T01:32:11.978Z,77.13
2022-10-14T01:32:49.548Z,76.47
2022-10-14T01:33:23.879Z,76.57
2022-10-14T01:33:57.219Z,79.22
2022-10-14T01:34:32.850Z,76.45
2022-10-14T01:35:09.800Z,79.38
2022-10-14T01:35:52.027Z,77.40
2022-10-14T01:36:27.078Z,79.10
2022-10-14T01:37:00.366Z,78.88
2022-10-14T01:37:35.235Z,79.30
2022-10-14T01:38:10.585Z,79.65
2022-10-14T01:38:45.039Z,81.00
2022-10-14T01:39:21.233Z,80.70
2022-10-14T01:39:55.928Z,76.95
2022-10-14T01:40:32.725Z,76.85
2022-10-14T01:41:08.554Z,76.93
2022-10-14T01:41:43.492Z,76.88
2022-10-14T01:42:16.586Z,77.25
2022-10-14T01:42:49.809Z,76.55
2022-10-14T01:43:23.169Z,77.75
2022-10-14T01:43:56.571Z,76.15
2022-10-14T01:44:31.541Z,76.03
2022-10-14T01:45:05.377Z,75.70
2022-10-14T01:45:41.073Z,77.03
2022-10-14T01:46:18.199Z,75.32
2022-10-14T01:46:51.599Z,76.20
2022-10-14T01:47:24.922Z,75.30
2022-10-14T01:47:58.678Z,75.35
2022-10-14T01:48:34.380Z,75.82
2022-10-14T01:49:08.789Z,75.95
2022-10-14T01:49:45.143Z,77.18
2022-10-14T01:50:18.508Z,74.90
2022-10-14T01:50:52.354Z,75.18
2022-10-14T01:51:30.642Z,76.43
2022-10-14T01:52:05.874Z,77.47
2022-10-14T01:52:40.383Z,76.30
2022-10-14T01:53:15.590Z,76.82
2022-10-14T01:53:57.886Z,76.90
2022-10-14T01:54:31.996Z,74.20
2022-10-14T01:55:07.014Z,75.40
2022-10-14T01:55:43.580Z,77.82
2022-10-14T01:56:16.340Z,77.65
2022-10-14T01:56:49.708Z,77.03
2022-10-14T01:57:25.275Z,76.55
2022-10-14T01:57:58.642Z,75.03
2022-10-14T01:58:32.825Z,77.82
2022-10-14T01:59:07.700Z,76.70
2022-10-14T01:59:39.934Z,76.55
2022-10-14T02:00:13.425Z,75.70
2022-10-14T02:00:49.833Z,76.35
2022-10-14T02:01:21.730Z,78.10
2022-10-14T02:01:54.560Z,76.95
2022-10-14T02:02:26.465Z,77.15
2022-10-14T02:02:58.245Z,77.88
2022-10-14T02:03:39.546Z,76.25
2022-10-14T02:04:14.743Z,77.50
2022-10-14T02:04:46.609Z,77.28
2022-10-14T02:05:22.417Z,77.80
2022-10-14T02:05:56.827Z,78.15
2022-10-14T02:06:31.136Z,77.72
2022-10-14T02:07:06.973Z,78.90
2022-10-14T02:07:40.195Z,78.87
2022-10-14T02:08:14.402Z,77.95
2022-10-14T02:08:57.497Z,77.45
2022-10-14T02:09:33.230Z,78.75
2022-10-14T02:10:10.972Z,79.13
2022-10-14T02:10:52.676Z,79.45
2022-10-14T02:11:26.772Z,78.28
2022-10-14T02:12:04.532Z,78.18
2022-10-14T02:12:39.903Z,78.90
2022-10-14T02:13:22.047Z,80.22
2022-10-14T02:14:00.649Z,79.65
2022-10-14T02:14:38.291Z,78.40
2022-10-14T02:15:16.572Z,79.47
2022-10-14T02:15:57.647Z,78.65
2022-10-14T02:16:38.881Z,79.43
2022-10-14T02:17:12.903Z,79.65
2022-10-14T02:17:52.935Z,79.63
2022-10-14T02:18:30.834Z,80.93
2022-10-14T02:19:09.215Z,80.45
2022-10-14T02:19:44.235Z,80.65
2022-10-14T02:20:22.300Z,80.72
2022-10-14T02:20:58.179Z,82.28
2022-10-14T02:21:32.707Z,82.47
2022-10-14T02:22:09.807Z,82.05
2022-10-14T02:22:43.353Z,82.72
2022-10-14T02:23:16.950Z,83.93
2022-10-14T02:23:51.917Z,83.93
2022-10-14T02:24:26.884Z,82.88
2022-10-14T02:25:00.761Z,86.78
2022-10-14T02:25:36.002Z,82.93
2022-10-14T02:26:08.571Z,85.72
2022-10-14T02:26:42.441Z,86.78
2022-10-14T02:27:16.596Z,86.15
2022-10-14T02:27:49.532Z,85.10
2022-10-14T02:28:22.925Z,87.00
2022-10-14T02:28:58.023Z,85.38
2022-10-14T02:29:30.689Z,84.93
2022-10-14T02:30:04.894Z,86.70
2022-10-14T02:30:40.183Z,85.72
2022-10-14T02:31:14.337Z,85.32
2022-10-14T02:31:49.476Z,85.57
2022-10-14T02:32:23.445Z,84.97
2022-10-14T02:32:56.358Z,86.30
2022-10-14T02:33:33.258Z,85.93
2022-10-14T02:34:07.386Z,85.35
2022-10-14T02:34:42.283Z,85.82
2022-10-14T02:35:15.816Z,87.80
2022-10-14T02:35:49.149Z,87.72
2022-10-14T02:36:22.439Z,86.40
2022-10-14T02:36:55.121Z,87.80
2022-10-14T02:37:29.001Z,88.53
2022-10-14T02:38:04.791Z,87.70
2022-10-14T02:38:37.132Z,88.68
2022-10-14T02:39:12.173Z,87.38
2022-10-14T02:39:46.230Z,87.78
2022-10-14T02:40:20.735Z,89.75
2022-10-14T02:40:53.925Z,89.20
2022-10-14T02:41:28.189Z,90.72
2022-10-14T02:42:00.053Z,87.38
2022-10-14T02:42:33.155Z,88.88
2022-10-14T02:43:10.083Z,88.00
2022-10-14T02:43:43.950Z,86.88
2022-10-14T02:44:16.713Z,87.18
2022-10-14T02:44:54.549Z,87.90
2022-10-14T02:45:27.039Z,86.65
2022-10-14T02:46:01.401Z,86.70
2022-10-14T02:46:35.223Z,86.15
2022-10-14T02:47:07.015Z,86.13
2022-10-14T02:47:39.889Z,86.55
2022-10-14T02:48:12.716Z,86.82
2022-10-14T02:48:44.539Z,86.93
2022-10-14T02:49:17.883Z,86.20
2022-10-14T02:49:49.729Z,86.72
2022-10-14T02:50:21.908Z,87.07
2022-10-14T02:50:56.464Z,85.05
2022-10-14T02:51:29.315Z,86.20
2022-10-14T02:52:01.417Z,85.95
2022-10-14T02:52:36.407Z,85.43
2022-10-14T02:53:09.678Z,86.53
2022-10-14T02:53:42.759Z,85.30
2022-10-14T02:54:15.094Z,84.47
2022-10-14T02:54:50.112Z,84.53
2022-10-14T02:55:22.326Z,84.95
2022-10-14T02:55:54.011Z,82.72
2022-10-14T02:56:26.767Z,83.97
2022-10-14T02:56:58.588Z,83.15
2022-10-14T02:57:30.579Z,83.43
2022-10-14T02:58:03.461Z,83.22
2022-10-14T02:58:35.414Z,82.72
2022-10-14T02:59:07.465Z,82.47
2022-10-14T02:59:40.769Z,81.38
2022-10-14T03:00:13.106Z,82.13
2022-10-14T03:00:48.737Z,81.55
2022-10-14T03:01:22.357Z,81.47
2022-10-14T03:01:55.822Z,82.07
2022-10-14T03:02:28.329Z,81.78
2022-10-14T03:03:02.605Z,81.65
2022-10-14T03:03:36.366Z,81.30
2022-10-14T03:04:08.583Z,81.40
2022-10-14T03:04:41.714Z,80.00
2022-10-14T03:05:14.347Z,79.13
2022-10-14T03:05:47.263Z,80.05
2022-10-14T03:06:20.487Z,81.40
2022-10-14T03:06:53.909Z,80.20
2022-10-14T03:07:30.853Z,78.70
2022-10-14T03:08:06.869Z,78.65
2022-10-14T03:08:39.067Z,78.75
2022-10-14T03:09:15.503Z,79.68
2022-10-14T03:09:49.487Z,78.25
2022-10-14T03:10:22.175Z,78.95
2022-10-14T03:10:55.265Z,79.13
2022-10-14T03:11:27.407Z,78.65
2022-10-14T03:12:05.503Z,79.72
2022-10-14T03:12:38.477Z,80.80
2022-10-14T03:13:14.419Z,77.80
2022-10-14T03:13:50.338Z,80.55
2022-10-14T03:14:25.851Z,79.78
2022-10-14T03:14:58.249Z,80.35
2022-10-14T03:15:31.389Z,80.18
2022-10-14T03:16:05.644Z,81.03
2022-10-14T03:16:39.835Z,78.82
2022-10-14T03:17:13.323Z,81.65
2022-10-14T03:17:46.353Z,80.47
2022-10-14T03:18:19.293Z,82.25
2022-10-14T03:18:53.546Z,84.65
2022-10-14T03:19:38.463Z,80.00
2022-10-14T03:20:12.424Z,80.18
2022-10-14T03:20:52.659Z,80.95
2022-10-14T03:21:29.261Z,84.68
2022-10-14T03:22:01.063Z,81.97
2022-10-14T03:22:34.325Z,81.50
2022-10-14T03:23:06.173Z,80.80
2022-10-14T03:23:40.979Z,78.43
2022-10-14T03:24:14.001Z,78.57
2022-10-14T03:24:46.952Z,81.55
2022-10-14T03:25:49.492Z,82.07
2022-10-14T03:26:27.305Z,81.32
2022-10-14T03:26:59.239Z,82.18
2022-10-14T03:27:32.575Z,82.82
2022-10-14T03:28:09.396Z,79.53
2022-10-14T03:28:52.309Z,82.15
2022-10-14T03:29:28.412Z,79.45
2022-10-14T03:30:14.291Z,83.30
2022-10-14T03:31:01.534Z,85.85
2022-10-14T03:31:49.069Z,82.93
2022-10-14T03:32:36.925Z,79.70
2022-10-14T03:33:47.197Z,80.18
2022-10-14T03:34:23.797Z,84.80
2022-10-14T03:35:04.560Z,83.53
2022-10-14T03:35:36.895Z,83.03
2022-10-14T03:36:13.325Z,82.68
2022-10-14T03:36:50.109Z,83.07
2022-10-14T03:37:22.055Z,83.72
2022-10-14T03:37:56.809Z,84.00
2022-10-14T03:38:34.444Z,82.93
2022-10-14T03:39:07.393Z,81.07
2022-10-14T03:39:46.730Z,81.13
2022-10-14T03:40:19.634Z,83.63
2022-10-14T03:40:51.965Z,82.80
2022-10-14T03:41:27.240Z,81.13
2022-10-14T03:41:59.576Z,82.28
2022-10-14T03:42:38.875Z,81.78
2022-10-14T03:43:12.556Z,82.80
2022-10-14T03:44:10.908Z,81.90
2022-10-14T03:44:46.800Z,81.80
2022-10-14T03:45:23.916Z,81.45
2022-10-14T03:45:57.849Z,82.10
2022-10-14T03:46:31.503Z,81.78
2022-10-14T03:47:04.828Z,83.53
2022-10-14T03:47:39.748Z,83.70
2022-10-14T03:48:13.137Z,83.40
2022-10-14T03:48:46.094Z,81.43
2022-10-14T03:49:18.129Z,82.72
2022-10-14T03:49:51.162Z,82.60
2022-10-14T03:50:34.852Z,78.97
2022-10-14T03:51:06.895Z,82.95
2022-10-14T03:51:40.897Z,82.13
2022-10-14T03:52:21.067Z,83.43
2022-10-14T03:53:04.886Z,84.72
2022-10-14T03:53:41.116Z,83.80
2022-10-14T03:54:13.273Z,84.25
2022-10-14T03:54:46.289Z,85.20
2022-10-14T03:55:21.143Z,83.55
2022-10-14T03:55:55.502Z,86.47
2022-10-14T03:56:28.552Z,85.93
2022-10-14T03:57:00.679Z,86.78
2022-10-14T03:57:40.459Z,84.10
2022-10-14T03:58:13.814Z,84.93
2022-10-14T03:58:52.803Z,83.95
2022-10-14T03:59:26.828Z,83.75
2022-10-14T04:00:02.537Z,84.57
2022-10-14T04:00:54.497Z,84.90
2022-10-14T04:01:53.194Z,84.75
2022-10-14T04:02:28.889Z,85.85
2022-10-14T04:03:04.130Z,87.85
2022-10-14T04:03:46.521Z,85.40
2022-10-14T04:04:18.463Z,87.63
2022-10-14T04:04:51.331Z,87.82
2022-10-14T04:05:27.272Z,83.65
2022-10-14T04:05:59.151Z,88.20
2022-10-14T04:06:33.405Z,86.72
2022-10-14T04:07:09.019Z,86.13
2022-10-14T04:07:47.775Z,86.00
2022-10-14T04:08:20.743Z,87.20
2022-10-14T04:09:01.550Z,86.60
2022-10-14T04:09:39.552Z,86.15
2022-10-14T04:10:13.851Z,86.35
2022-10-14T04:10:52.322Z,86.47
2022-10-14T04:11:24.413Z,87.30
2022-10-14T04:12:01.477Z,88.63
2022-10-14T04:12:53.839Z,88.78
2022-10-14T04:13:33.174Z,88.63
2022-10-14T04:14:05.789Z,89.18
2022-10-14T04:14:43.216Z,90.38
2022-10-14T04:15:16.713Z,91.22
2022-10-14T04:16:09.029Z,91.78
2022-10-14T04:17:05.901Z,91.75
2022-10-14T04:17:37.866Z,92.65
2022-10-14T04:18:16.737Z,92.53
2022-10-14T04:18:51.759Z,92.63
2022-10-14T04:19:31.607Z,92.82
2022-10-14T04:20:06.716Z,94.07
2022-10-14T04:20:47.516Z,92.22
2022-10-14T04:21:31.076Z,91.05
2022-10-14T04:22:04.587Z,93.20
2022-10-14T04:22:38.300Z,93.50
2022-10-14T04:23:14.415Z,93.20
2022-10-14T04:23:50.873Z,93.70
2022-10-14T04:24:25.692Z,93.28
2022-10-14T04:25:02.286Z,95.85
2022-10-14T04:25:34.334Z,94.20
2022-10-14T04:26:10.448Z,94.03
2022-10-14T04:26:51.432Z,94.32
2022-10-14T04:27:43.073Z,92.63
2022-10-14T04:28:15.519Z,95.38
2022-10-14T04:28:53.258Z,95.13
2022-10-14T04:29:37.384Z,94.20
2022-10-14T04:30:19.066Z,93.10
2022-10-14T04:30:56.821Z,94.57
2022-10-14T04:32:06.916Z,91.18
2022-10-14T04:32:47.134Z,94.60
2022-10-14T04:33:24.201Z,92.90
2022-10-14T04:33:56.781Z,94.47
2022-10-14T04:34:36.446Z,94.07
2022-10-14T04:35:11.216Z,93.07
2022-10-14T04:35:48.358Z,91.93
2022-10-14T04:36:29.317Z,91.95
2022-10-14T04:37:03.711Z,92.25
2022-10-14T04:38:43.390Z,92.35
2022-10-14T04:39:16.678Z,93.18
2022-10-14T04:40:06.651Z,93.78
2022-10-14T04:40:57.028Z,93.93
2022-10-14T04:41:30.973Z,94.50
2022-10-14T04:42:12.054Z,92.28
2022-10-14T04:43:15.343Z,94.13
2022-10-14T04:43:49.459Z,93.23
2022-10-14T04:44:33.938Z,94.30
2022-10-14T04:45:12.210Z,95.20
2022-10-14T04:45:58.336Z,95.93
2022-10-14T04:46:36.075Z,93.65
2022-10-14T04:47:09.280Z,93.35
2022-10-14T04:47:48.655Z,94.38
2022-10-14T04:48:35.277Z,95.15
2022-10-14T04:49:11.048Z,95.65
2022-10-14T04:49:50.875Z,93.35
2022-10-14T04:50:28.008Z,94.22
2022-10-14T04:51:21.463Z,92.32
2022-10-14T04:52:14.877Z,92.82
2022-10-14T04:52:53.648Z,93.15
2022-10-14T04:53:25.798Z,93.60
2022-10-14T04:54:28.582Z,95.95
2022-10-14T04:55:24.196Z,93.53
2022-10-14T04:56:03.031Z,95.00
2022-10-14T04:56:35.318Z,95.70
2022-10-14T04:57:10.284Z,94.25
2022-10-14T04:57:44.692Z,96.93
2022-10-14T04:58:19.156Z,96.05
2022-10-14T04:59:01.155Z,94.90
